Time;durP1;ratioP1;P1;durP2;ratioP2;P2;SDS_P1;SDS_P2;PMS_P1;PMS_P2;Temp;Humidity;BMP_temperature;BMP_pressure;BME280_temperature;BME280_humidity;BME280_pressure;Samples;Min_cycle;Max_cycle;Signal;HPM_P1;HPM_P2
2023/03/09 00:01:34;;;;;;;25.02;10.95;;;4.80;99.90;;;;;;4903775;29;20116;-71
2023/03/09 00:04:00;;;;;;;25.17;10.98;;;4.80;99.90;;;;;;4903749;29;20494;-71
2023/03/09 00:06:26;;;;;;;25.48;11.38;;;4.90;99.90;;;;;;4903686;29;20036;-72
2023/03/09 00:08:52;;;;;;;24.55;10.23;;;4.90;99.90;;;;;;4903647;29;20292;-71
2023/03/09 00:11:19;;;;;;;21.85;9.98;;;4.90;99.90;;;;;;4903260;29;20048;-71
2023/03/09 00:13:46;;;;;;;19.77;9.40;;;5.00;99.90;;;;;;4903706;29;20056;-71
2023/03/09 00:16:21;;;;;;;24.30;9.90;;;5.00;99.90;;;;;;4903435;29;20040;-71
2023/03/09 00:18:47;;;;;;;22.13;9.82;;;5.00;99.90;;;;;;4903131;29;20045;-71
2023/03/09 00:21:25;;;;;;;20.20;8.57;;;4.90;99.90;;;;;;4902970;29;20071;-71
2023/03/09 00:23:51;;;;;;;22.85;9.95;;;4.90;99.90;;;;;;4903384;29;20054;-71
2023/03/09 00:26:16;;;;;;;21.58;9.27;;;4.80;99.90;;;;;;4886783;29;20115;-71
2023/03/09 00:28:42;;;;;;;23.13;9.57;;;4.80;99.90;;;;;;4886396;29;20056;-71
2023/03/09 00:31:09;;;;;;;21.08;9.10;;;4.70;99.90;;;;;;4903245;29;20037;-71
2023/03/09 00:33:35;;;;;;;18.05;8.75;;;4.80;99.90;;;;;;4903197;29;20045;-71
2023/03/09 00:36:00;;;;;;;20.65;10.10;;;4.90;99.90;;;;;;4903210;29;20040;-71
2023/03/09 00:38:26;;;;;;;24.98;9.73;;;5.00;99.90;;;;;;4902900;29;20040;-71
2023/03/09 00:40:52;;;;;;;21.65;10.10;;;5.00;99.90;;;;;;4902356;29;20045;-71
2023/03/09 00:43:17;;;;;;;23.23;10.93;;;5.00;99.90;;;;;;4902670;29;20044;-71
2023/03/09 00:45:43;;;;;;;28.52;11.63;;;4.80;99.90;;;;;;4902973;29;20055;-71
2023/03/09 00:48:09;;;;;;;20.63;10.68;;;4.80;99.90;;;;;;4902242;29;20041;-71
2023/03/09 00:50:34;;;;;;;26.52;11.60;;;4.90;99.90;;;;;;4886008;29;20149;-71
2023/03/09 00:53:00;;;;;;;24.08;11.05;;;4.90;99.90;;;;;;4902869;29;20335;-71
2023/03/09 00:55:26;;;;;;;23.10;10.70;;;4.90;99.90;;;;;;4902749;29;20053;-71
2023/03/09 00:57:51;;;;;;;24.00;11.32;;;4.80;99.90;;;;;;4902415;29;20036;-71
2023/03/09 01:00:17;;;;;;;25.05;11.07;;;4.80;99.90;;;;;;4902660;29;20072;-71
2023/03/09 01:02:43;;;;;;;20.98;10.00;;;4.90;99.90;;;;;;4902594;29;20327;-71
2023/03/09 01:05:10;;;;;;;23.83;11.07;;;4.80;99.90;;;;;;4902606;29;20073;-71
2023/03/09 01:07:35;;;;;;;21.58;10.35;;;4.70;99.90;;;;;;4902524;29;20487;-71
2023/03/09 01:10:02;;;;;;;23.23;10.52;;;4.60;99.90;;;;;;4902491;29;20079;-71
2023/03/09 01:12:28;;;;;;;26.55;11.10;;;4.60;99.90;;;;;;4902497;29;20120;-71
2023/03/09 01:14:55;;;;;;;20.67;9.85;;;4.60;99.90;;;;;;4902481;29;20400;-71
2023/03/09 01:17:21;;;;;;;22.73;10.77;;;4.50;99.90;;;;;;4902413;29;20197;-71
2023/03/09 01:19:47;;;;;;;26.98;11.10;;;4.40;99.90;;;;;;4901735;29;20052;-71
2023/03/09 01:22:12;;;;;;;22.10;10.80;;;4.40;99.90;;;;;;4902279;29;20045;-71
2023/03/09 01:24:38;;;;;;;22.02;10.02;;;4.40;99.90;;;;;;4902298;29;20339;-71
2023/03/09 01:27:05;;;;;;;19.13;9.65;;;4.40;99.90;;;;;;4902263;29;20371;-71
2023/03/09 01:29:30;;;;;;;19.25;10.20;;;4.50;99.90;;;;;;4902212;29;20044;-71
2023/03/09 01:31:56;;;;;;;22.17;9.13;;;4.60;99.90;;;;;;4902139;29;20041;-71
2023/03/09 01:34:22;;;;;;;20.60;9.77;;;4.50;99.90;;;;;;4885215;29;20048;-71
2023/03/09 01:36:47;;;;;;;23.30;10.00;;;4.60;99.90;;;;;;4901909;29;20147;-71
2023/03/09 01:39:13;;;;;;;23.30;10.50;;;4.60;99.90;;;;;;4902011;29;20037;-71
2023/03/09 01:41:39;;;;;;;21.17;9.55;;;4.60;99.90;;;;;;4901927;29;20041;-71
2023/03/09 01:44:05;;;;;;;22.77;10.80;;;4.60;99.90;;;;;;4901933;29;20032;-71
2023/03/09 01:46:38;;;;;;;21.38;10.20;;;4.60;99.90;;;;;;4901927;29;20055;-71
2023/03/09 01:49:27;;;;;;;21.13;10.30;;;4.60;99.90;;;;;;4901224;29;20083;-71
2023/03/09 01:52:13;;;;;;;22.70;11.32;;;4.50;99.90;;;;;;4890907;29;20052;-71
2023/03/09 01:54:42;;;;;;;22.20;10.13;;;4.60;99.90;;;;;;4901853;29;20120;-71
2023/03/09 01:57:25;;;;;;;25.52;10.43;;;4.50;99.90;;;;;;4890049;29;20041;-71
2023/03/09 01:59:53;;;;;;;23.70;10.60;;;4.50;99.90;;;;;;4864550;29;20106;-71
2023/03/09 02:02:22;;;;;;;25.17;10.68;;;4.50;99.90;;;;;;4864466;29;20049;-71
2023/03/09 02:04:54;;;;;;;22.77;10.43;;;4.40;99.90;;;;;;4864394;29;20047;-71
2023/03/09 02:07:22;;;;;;;24.63;10.90;;;4.40;99.90;;;;;;4864505;29;20045;-71
2023/03/09 02:09:57;;;;;;;22.90;10.88;;;4.20;99.90;;;;;;4864400;29;20432;-71
2023/03/09 02:12:24;;;;;;;22.25;11.13;;;4.10;99.90;;;;;;4864445;29;20049;-71
2023/03/09 02:14:50;;;;;;;22.95;9.75;;;4.00;99.90;;;;;;4864345;29;20041;-71
2023/03/09 02:17:16;;;;;;;21.20;10.00;;;4.00;99.90;;;;;;4864355;29;20045;-71
2023/03/09 02:20:11;;;;;;;18.85;8.95;;;4.10;99.90;;;;;;4863659;29;20074;-71
2023/03/09 02:22:38;;;;;;;19.35;9.23;;;4.20;99.90;;;;;;4864244;29;20053;-71
2023/03/09 02:25:09;;;;;;;20.67;10.70;;;4.20;99.90;;;;;;4864229;29;20052;-71
2023/03/09 02:27:35;;;;;;;22.88;10.93;;;4.30;99.90;;;;;;4864262;29;20045;-71
2023/03/09 02:30:02;;;;;;;23.67;10.48;;;4.30;99.90;;;;;;4864246;29;20045;-71
2023/03/09 02:32:31;;;;;;;20.40;9.93;;;4.20;99.90;;;;;;4864190;29;20049;-71
2023/03/09 02:34:57;;;;;;;21.35;10.32;;;4.10;99.90;;;;;;4864160;29;20049;-75
2023/03/09 02:37:32;;;;;;;25.60;10.95;;;4.10;99.90;;;;;;4864122;29;20048;-71
2023/03/09 02:40:10;;;;;;;26.15;11.02;;;4.20;99.90;;;;;;4864178;29;20046;-71
2023/03/09 02:42:37;;;;;;;21.30;11.10;;;4.20;99.90;;;;;;4864077;29;20042;-71
2023/03/09 02:45:05;;;;;;;21.42;11.45;;;4.30;99.90;;;;;;4864094;29;20124;-71
2023/03/09 02:47:30;;;;;;;23.80;11.50;;;4.40;99.90;;;;;;4863685;29;20053;-71
2023/03/09 02:49:56;;;;;;;20.85;10.60;;;4.50;99.90;;;;;;4863378;29;20041;-71
2023/03/09 02:52:22;;;;;;;23.83;10.85;;;4.40;99.90;;;;;;4864038;29;20045;-71
2023/03/09 02:54:47;;;;;;;24.27;11.93;;;4.40;99.90;;;;;;4847831;29;20057;-71
2023/03/09 02:57:14;;;;;;;21.65;11.38;;;4.40;99.90;;;;;;4863761;29;20041;-71
2023/03/09 02:59:40;;;;;;;23.80;11.23;;;4.40;99.90;;;;;;4863661;29;20038;-71
2023/03/09 03:02:06;;;;;;;26.50;11.32;;;4.40;99.90;;;;;;4863867;29;20049;-71
2023/03/09 03:04:31;;;;;;;26.58;11.95;;;4.40;99.90;;;;;;4866358;29;20041;-71
2023/03/09 03:06:57;;;;;;;23.30;10.70;;;4.40;99.90;;;;;;4867418;29;20034;-71
2023/03/09 03:09:23;;;;;;;24.95;12.05;;;4.40;99.90;;;;;;4867373;29;20037;-71
2023/03/09 03:11:49;;;;;;;26.25;11.40;;;4.30;99.90;;;;;;4867380;29;20098;-71
2023/03/09 03:14:14;;;;;;;27.90;12.10;;;4.30;99.90;;;;;;4867371;29;20435;-71
2023/03/09 03:16:40;;;;;;;25.23;11.10;;;4.30;99.90;;;;;;4867298;29;20335;-71
2023/03/09 03:19:06;;;;;;;26.13;12.52;;;4.20;99.90;;;;;;4866846;29;20045;-71
2023/03/09 03:21:31;;;;;;;28.25;11.85;;;4.20;99.90;;;;;;4866678;29;20093;-71
2023/03/09 03:23:57;;;;;;;26.88;12.85;;;4.30;99.90;;;;;;4867205;29;20037;-71
2023/03/09 03:26:23;;;;;;;26.10;12.35;;;4.30;99.90;;;;;;4867147;29;20430;-71
2023/03/09 03:28:48;;;;;;;25.42;12.18;;;4.30;99.90;;;;;;4867075;29;20037;-71
2023/03/09 03:31:14;;;;;;;28.40;12.55;;;4.30;99.90;;;;;;4867012;29;20049;-71
2023/03/09 03:33:40;;;;;;;29.13;12.57;;;4.40;99.90;;;;;;4866999;29;20049;-71
2023/03/09 03:36:06;;;;;;;27.92;12.40;;;4.40;99.90;;;;;;4866945;29;20428;-71
2023/03/09 03:38:32;;;;;;;25.02;11.70;;;4.40;99.90;;;;;;4866672;29;20124;-71
2023/03/09 03:40:57;;;;;;;28.77;12.90;;;4.50;99.90;;;;;;4866851;29;20124;-71
2023/03/09 03:43:23;;;;;;;27.95;12.27;;;4.30;99.90;;;;;;4866738;29;20314;-71
2023/03/09 03:45:49;;;;;;;27.02;12.32;;;4.30;99.90;;;;;;4866732;29;20045;-71
2023/03/09 03:48:14;;;;;;;30.83;13.43;;;4.40;99.90;;;;;;4866442;29;20050;-71
2023/03/09 03:50:40;;;;;;;30.13;13.23;;;4.30;99.90;;;;;;4866066;29;20124;-71
2023/03/09 03:53:06;;;;;;;32.92;13.43;;;4.30;99.90;;;;;;4866599;29;20041;-71
2023/03/09 03:55:32;;;;;;;35.85;13.23;;;4.30;99.90;;;;;;4866373;29;20046;-71
2023/03/09 03:57:57;;;;;;;32.75;13.38;;;4.30;99.90;;;;;;4866554;29;20101;-71
2023/03/09 04:00:24;;;;;;;29.85;12.73;;;4.30;99.90;;;;;;4866538;29;20077;-71
2023/03/09 04:02:50;;;;;;;29.98;13.27;;;4.40;99.90;;;;;;4866403;29;20185;-71
2023/03/09 04:05:16;;;;;;;31.17;13.07;;;4.40;99.90;;;;;;4866421;29;20049;-71
2023/03/09 04:07:41;;;;;;;30.73;14.68;;;4.40;99.90;;;;;;4866308;29;20512;-71
2023/03/09 04:10:08;;;;;;;29.02;13.38;;;4.50;99.90;;;;;;4866370;29;20120;-71
2023/03/09 04:12:34;;;;;;;31.80;13.65;;;4.50;99.90;;;;;;4866272;29;20102;-71
2023/03/09 04:14:59;;;;;;;29.58;13.60;;;4.40;99.90;;;;;;4865495;29;20140;-71
2023/03/09 04:17:25;;;;;;;26.05;12.68;;;4.30;99.90;;;;;;4866105;29;20491;-71
2023/03/09 04:19:51;;;;;;;28.92;13.68;;;4.40;99.90;;;;;;4865558;29;20108;-71
2023/03/09 04:22:17;;;;;;;30.45;13.40;;;4.40;99.90;;;;;;4865779;29;20128;-71
2023/03/09 04:24:42;;;;;;;32.38;13.52;;;4.40;99.90;;;;;;4866077;29;20038;-71
2023/03/09 04:27:08;;;;;;;34.47;14.25;;;4.40;99.90;;;;;;4866047;29;20048;-71
2023/03/09 04:29:34;;;;;;;32.65;14.85;;;4.40;99.90;;;;;;4865734;29;20053;-71
2023/03/09 04:31:59;;;;;;;34.53;14.43;;;4.50;99.90;;;;;;4865682;29;20151;-71
2023/03/09 04:34:25;;;;;;;36.00;15.93;;;4.30;99.90;;;;;;4865902;29;20041;-71
2023/03/09 04:36:50;;;;;;;37.30;15.27;;;4.30;99.90;;;;;;4865588;29;20347;-71
2023/03/09 04:39:16;;;;;;;37.20;16.85;;;4.40;99.90;;;;;;4865802;29;20045;-71
2023/03/09 04:41:42;;;;;;;34.45;14.82;;;4.50;99.90;;;;;;4865753;29;20045;-71
2023/03/09 04:44:08;;;;;;;40.03;16.25;;;4.50;99.90;;;;;;4865724;29;20484;-71
2023/03/09 04:46:33;;;;;;;43.55;16.10;;;4.50;99.90;;;;;;4865755;29;20041;-71
2023/03/09 04:48:59;;;;;;;37.58;16.13;;;4.40;99.90;;;;;;4848743;29;20399;-71
2023/03/09 04:51:25;;;;;;;33.78;15.20;;;4.30;99.90;;;;;;4865629;29;20045;-73
2023/03/09 04:53:50;;;;;;;37.08;15.70;;;4.20;99.90;;;;;;4865557;29;20177;-71
2023/03/09 04:56:16;;;;;;;34.25;15.88;;;4.20;99.90;;;;;;4865493;29;20045;-71
2023/03/09 04:58:42;;;;;;;37.67;15.13;;;4.20;99.90;;;;;;4865497;29;20047;-71
2023/03/09 05:01:07;;;;;;;36.03;15.30;;;4.10;99.90;;;;;;4865348;29;20041;-71
2023/03/09 05:03:33;;;;;;;37.00;15.50;;;4.10;99.90;;;;;;4865415;29;20090;-71
2023/03/09 05:05:59;;;;;;;30.52;13.98;;;4.10;99.90;;;;;;4865361;29;20301;-71
2023/03/09 05:08:24;;;;;;;28.95;13.65;;;4.20;99.90;;;;;;4864964;29;20128;-71
2023/03/09 05:10:50;;;;;;;37.80;15.25;;;4.20;99.90;;;;;;4865057;29;20053;-71
2023/03/09 05:13:16;;;;;;;35.65;15.88;;;4.30;99.90;;;;;;4848774;29;20384;-71
2023/03/09 05:15:41;;;;;;;31.90;14.18;;;4.20;99.90;;;;;;4865026;29;20056;-71
2023/03/09 05:18:08;;;;;;;34.83;14.63;;;4.30;99.90;;;;;;4865022;29;20432;-71
2023/03/09 05:20:34;;;;;;;34.72;14.60;;;4.20;99.90;;;;;;4864283;29;20133;-71
2023/03/09 05:23:03;;;;;;;32.92;13.95;;;4.20;99.90;;;;;;4864868;29;20551;-71
2023/03/09 05:25:29;;;;;;;33.88;14.48;;;4.20;99.90;;;;;;4864946;29;20052;-71
2023/03/09 05:27:55;;;;;;;34.65;15.23;;;4.30;99.90;;;;;;4864613;29;20447;-71
2023/03/09 05:30:20;;;;;;;33.47;14.07;;;4.30;99.90;;;;;;4864947;29;20046;-71
2023/03/09 05:32:49;;;;;;;33.65;13.70;;;4.30;99.90;;;;;;4864632;29;20045;-71
2023/03/09 05:35:18;;;;;;;33.70;14.25;;;4.30;99.90;;;;;;4864888;29;20317;-71
2023/03/09 05:37:45;;;;;;;35.60;14.23;;;4.30;99.90;;;;;;4864834;29;20117;-71
2023/03/09 05:40:12;;;;;;;32.33;13.90;;;4.30;99.90;;;;;;4864823;29;20051;-71
2023/03/09 05:42:39;;;;;;;33.40;14.45;;;4.30;99.90;;;;;;4864695;29;20125;-71
2023/03/09 05:45:05;;;;;;;35.67;14.25;;;4.20;99.90;;;;;;4864782;29;20045;-71
2023/03/09 05:47:31;;;;;;;33.50;14.45;;;4.20;99.90;;;;;;4848110;29;20432;-71
2023/03/09 05:49:57;;;;;;;31.48;13.85;;;4.20;99.90;;;;;;4864262;29;20102;-71
2023/03/09 05:52:23;;;;;;;35.03;15.05;;;4.10;99.90;;;;;;4864646;29;20053;-71
2023/03/09 05:54:49;;;;;;;32.40;14.43;;;4.10;99.90;;;;;;4864310;29;20341;-71
2023/03/09 05:57:14;;;;;;;27.60;13.65;;;4.20;99.90;;;;;;4864579;29;20042;-71
2023/03/09 05:59:41;;;;;;;33.75;14.95;;;4.30;99.90;;;;;;4864501;29;20122;-71
2023/03/09 06:02:06;;;;;;;29.85;13.23;;;4.30;99.90;;;;;;4864151;29;20125;-71
2023/03/09 06:04:32;;;;;;;30.02;12.93;;;4.20;99.90;;;;;;4864486;29;20121;-71
2023/03/09 06:06:58;;;;;;;27.15;12.88;;;4.20;99.90;;;;;;4864172;29;20056;-71
2023/03/09 06:09:25;;;;;;;29.63;13.60;;;4.20;99.90;;;;;;4864399;29;20042;-71
2023/03/09 06:11:50;;;;;;;27.27;13.10;;;4.30;99.90;;;;;;4864369;29;20436;-71
2023/03/09 06:14:16;;;;;;;29.15;13.80;;;4.30;99.90;;;;;;4864361;29;20052;-71
2023/03/09 06:16:42;;;;;;;28.33;13.25;;;4.30;99.90;;;;;;4864327;29;20041;-71
2023/03/09 06:19:08;;;;;;;29.33;13.80;;;4.40;99.90;;;;;;4863788;29;20048;-70
2023/03/09 06:21:34;;;;;;;29.38;13.25;;;4.40;99.90;;;;;;4863939;29;20053;-71
2023/03/09 06:24:00;;;;;;;31.42;14.02;;;4.50;99.90;;;;;;4864277;29;20113;-71
2023/03/09 06:26:26;;;;;;;30.60;13.52;;;4.50;99.90;;;;;;4863962;29;20042;-71
2023/03/09 06:28:52;;;;;;;28.73;14.63;;;4.60;99.90;;;;;;4864204;29;20033;-71
2023/03/09 06:31:18;;;;;;;30.58;13.10;;;4.60;99.90;;;;;;4864218;29;20307;-71
2023/03/09 06:33:45;;;;;;;27.98;13.13;;;4.60;99.90;;;;;;4847565;29;20136;-70
2023/03/09 06:36:13;;;;;;;25.42;13.15;;;4.50;99.90;;;;;;4864108;29;20063;-71
2023/03/09 06:38:39;;;;;;;29.05;14.15;;;4.40;99.90;;;;;;4879641;29;20051;-70
2023/03/09 06:41:05;;;;;;;29.45;13.20;;;4.50;99.90;;;;;;4867877;29;20124;-70
2023/03/09 06:43:31;;;;;;;30.00;13.45;;;4.40;99.90;;;;;;4867783;29;20060;-70
2023/03/09 06:45:57;;;;;;;31.27;13.23;;;4.40;99.90;;;;;;4867827;29;20045;-70
2023/03/09 06:48:23;;;;;;;27.35;12.90;;;4.30;99.90;;;;;;4867780;29;20346;-70
2023/03/09 06:50:48;;;;;;;26.85;12.63;;;4.30;99.90;;;;;;4867062;29;20332;-70
2023/03/09 06:53:15;;;;;;;26.67;13.48;;;4.30;99.90;;;;;;4867418;29;20050;-71
2023/03/09 06:55:41;;;;;;;24.90;12.38;;;4.20;99.90;;;;;;4867414;29;20049;-71
2023/03/09 06:58:07;;;;;;;31.35;13.45;;;4.30;99.90;;;;;;4867688;29;20245;-71
2023/03/09 07:00:37;;;;;;;26.00;13.18;;;4.20;99.90;;;;;;4882090;29;20046;-71
2023/03/09 07:03:04;;;;;;;29.52;14.07;;;4.20;99.90;;;;;;4867491;29;20041;-71
2023/03/09 07:05:30;;;;;;;29.55;14.00;;;4.20;99.90;;;;;;4867238;29;20045;-71
2023/03/09 07:07:55;;;;;;;30.23;14.57;;;4.20;99.90;;;;;;4867457;29;20042;-71
2023/03/09 07:10:21;;;;;;;29.55;13.27;;;4.20;99.90;;;;;;4867483;29;20037;-71
2023/03/09 07:12:48;;;;;;;32.03;13.27;;;4.00;99.90;;;;;;4867367;29;20049;-71
2023/03/09 07:15:15;;;;;;;29.13;13.65;;;4.00;99.90;;;;;;4867041;29;20049;-71
2023/03/09 07:17:42;;;;;;;25.15;12.80;;;3.90;99.90;;;;;;4867027;29;20064;-71
2023/03/09 07:20:09;;;;;;;30.08;13.82;;;3.80;99.90;;;;;;4866594;29;20061;-71
2023/03/09 07:22:35;;;;;;;26.83;12.00;;;3.80;99.90;;;;;;4866748;29;20444;-70
2023/03/09 07:25:01;;;;;;;30.40;14.05;;;3.80;99.90;;;;;;4867111;29;20072;-70
2023/03/09 07:27:27;;;;;;;29.25;13.10;;;3.90;99.90;;;;;;4867140;29;20336;-70
2023/03/09 07:29:53;;;;;;;29.67;12.73;;;4.00;99.90;;;;;;4867110;29;20038;-70
2023/03/09 07:32:18;;;;;;;24.67;12.48;;;4.10;99.90;;;;;;4867077;29;20048;-71
2023/03/09 07:34:44;;;;;;;50.40;15.70;;;4.10;99.90;;;;;;4866994;29;20385;-71
2023/03/09 07:37:10;;;;;;;32.38;13.55;;;4.10;99.90;;;;;;4866967;29;20052;-71
2023/03/09 07:39:36;;;;;;;26.52;12.98;;;4.20;99.90;;;;;;4866932;29;20101;-71
2023/03/09 07:42:02;;;;;;;26.23;13.65;;;4.30;99.90;;;;;;4866510;29;20053;-71
2023/03/09 07:44:28;;;;;;;23.60;11.95;;;4.30;99.90;;;;;;4866811;29;20049;-71
2023/03/09 07:46:54;;;;;;;24.55;12.52;;;4.30;99.90;;;;;;4866805;29;20037;-71
2023/03/09 07:49:19;;;;;;;27.73;12.65;;;4.30;99.90;;;;;;4865881;29;20428;-71
2023/03/09 07:51:45;;;;;;;22.27;11.43;;;4.40;99.90;;;;;;4866015;29;20046;-71
2023/03/09 07:54:11;;;;;;;24.73;12.68;;;4.30;99.90;;;;;;4866391;29;20054;-71
2023/03/09 07:56:37;;;;;;;22.88;11.30;;;4.30;99.90;;;;;;4866329;29;20054;-71
2023/03/09 07:59:03;;;;;;;26.73;13.40;;;4.10;99.90;;;;;;4866439;29;20056;-71
2023/03/09 08:01:30;;;;;;;31.65;13.02;;;4.30;99.90;;;;;;4866440;29;20069;-71
2023/03/09 08:03:55;;;;;;;26.52;12.75;;;4.50;99.90;;;;;;4866504;29;20042;-71
2023/03/09 08:06:21;;;;;;;30.35;13.48;;;4.50;99.90;;;;;;4866471;29;20106;-71
2023/03/09 08:08:47;;;;;;;24.92;12.35;;;4.40;99.90;;;;;;4866431;29;20045;-73
2023/03/09 08:11:13;;;;;;;24.88;12.77;;;4.60;99.90;;;;;;4866405;29;20076;-71
2023/03/09 08:13:39;;;;;;;292.08;35.38;;;4.70;99.90;;;;;;4866267;29;20052;-71
2023/03/09 08:16:07;;;;;;;37.38;13.38;;;4.70;99.90;;;;;;4865994;29;20344;-71
2023/03/09 08:18:34;;;;;;;26.05;12.85;;;4.80;99.90;;;;;;4866190;29;20041;-71
2023/03/09 08:21:09;;;;;;;25.50;11.52;;;4.80;99.90;;;;;;4865809;29;20064;-71
2023/03/09 08:23:37;;;;;;;27.88;12.05;;;4.90;99.90;;;;;;4866075;29;20054;-71
2023/03/09 08:26:03;;;;;;;22.88;11.75;;;4.90;99.90;;;;;;4866111;29;20125;-71
2023/03/09 08:28:30;;;;;;;23.10;11.40;;;4.80;99.90;;;;;;4866060;29;20100;-71
2023/03/09 08:30:56;;;;;;;26.08;11.55;;;4.80;99.90;;;;;;4866027;29;20049;-70
2023/03/09 08:33:21;;;;;;;21.73;11.02;;;5.00;99.90;;;;;;4866001;29;20317;-70
2023/03/09 08:35:47;;;;;;;25.98;12.07;;;5.00;99.90;;;;;;4865673;29;20068;-70
2023/03/09 08:38:13;;;;;;;21.67;10.80;;;5.00;99.90;;;;;;4865924;29;20077;-72
2023/03/09 08:40:39;;;;;;;27.27;12.20;;;5.00;99.90;;;;;;4865545;29;20424;-72
2023/03/09 08:43:05;;;;;;;20.77;11.02;;;5.10;99.90;;;;;;4865745;29;20042;-71
2023/03/09 08:45:31;;;;;;;22.15;10.45;;;5.20;99.90;;;;;;4865787;29;20233;-71
2023/03/09 08:47:57;;;;;;;19.77;10.60;;;5.00;99.90;;;;;;4865744;29;20136;-68
2023/03/09 08:50:23;;;;;;;18.80;10.10;;;5.10;99.90;;;;;;4865065;29;20135;-67
2023/03/09 08:52:49;;;;;;;22.15;11.00;;;5.20;99.90;;;;;;4865723;29;20105;-67
2023/03/09 08:55:15;;;;;;;19.70;10.02;;;5.20;99.90;;;;;;4865317;29;20125;-66
2023/03/09 08:57:41;;;;;;;18.63;9.75;;;5.30;99.90;;;;;;4865563;29;20340;-67
2023/03/09 09:00:09;;;;;;;21.00;9.60;;;5.40;99.90;;;;;;4848880;29;20057;-67
2023/03/09 09:02:35;;;;;;;21.10;10.18;;;5.40;99.90;;;;;;4865065;29;20332;-67
2023/03/09 09:05:01;;;;;;;18.83;9.85;;;5.60;99.90;;;;;;4865433;29;20057;-67
2023/03/09 09:07:29;;;;;;;18.60;9.43;;;5.60;99.90;;;;;;4865147;29;20052;-67
2023/03/09 09:09:55;;;;;;;19.15;9.90;;;5.60;99.90;;;;;;4865072;29;20428;-67
2023/03/09 09:12:21;;;;;;;19.75;9.25;;;5.70;99.90;;;;;;4865017;29;20064;-67
2023/03/09 09:14:47;;;;;;;16.83;8.88;;;5.60;99.90;;;;;;4865271;29;20049;-67
2023/03/09 09:17:13;;;;;;;19.70;9.77;;;5.60;99.90;;;;;;4865231;29;20436;-68
2023/03/09 09:19:40;;;;;;;18.48;9.20;;;5.60;99.90;;;;;;4864581;29;20058;-68
2023/03/09 09:22:06;;;;;;;20.05;8.85;;;5.90;99.90;;;;;;4865077;29;20058;-68
2023/03/09 09:24:36;;;;;;;19.00;9.50;;;5.90;99.90;;;;;;4865055;29;20069;-68
2023/03/09 09:27:06;;;;;;;18.70;9.02;;;6.00;99.90;;;;;;4865060;29;20049;-68
2023/03/09 09:29:35;;;;;;;16.40;8.30;;;6.10;99.90;;;;;;4865116;29;20407;-68
2023/03/09 09:32:04;;;;;;;154.25;20.40;;;6.20;99.90;;;;;;4864903;29;20053;-68
2023/03/09 09:34:32;;;;;;;22.85;8.55;;;6.20;99.90;;;;;;4864650;29;20209;-69
2023/03/09 09:37:02;;;;;;;21.90;9.00;;;6.20;99.90;;;;;;4864685;29;20125;-68
2023/03/09 09:39:28;;;;;;;38.63;10.50;;;6.30;99.90;;;;;;4864542;29;20380;-68
2023/03/09 09:41:57;;;;;;;15.18;8.15;;;6.10;99.90;;;;;;4864459;29;20081;-68
2023/03/09 09:44:27;;;;;;;17.20;8.63;;;6.20;99.90;;;;;;4864745;29;20048;-68
2023/03/09 09:46:56;;;;;;;15.35;8.60;;;6.30;99.90;;;;;;4848447;29;20080;-68
2023/03/09 09:49:25;;;;;;;20.65;8.52;;;6.30;99.90;;;;;;4864003;29;20428;-68
2023/03/09 09:52:12;;;;;;;16.58;9.00;;;6.20;99.90;;;;;;4864687;29;20105;-68
2023/03/09 09:55:39;;;;;;;16.70;8.93;;;6.20;99.90;;;;;;4864702;29;20133;-67
2023/03/09 09:58:36;;;;;;;15.10;8.68;;;6.20;99.90;;;;;;4789606;29;20051;-67
2023/03/09 10:01:12;;;;;;;16.23;8.43;;;6.30;99.90;;;;;;4789671;30;20062;-67
2023/03/09 10:03:44;;;;;;;15.32;7.80;;;6.30;99.90;;;;;;4845534;29;20057;-67
2023/03/09 10:06:12;;;;;;;16.20;8.15;;;6.20;99.90;;;;;;4864587;29;20165;-68
2023/03/09 10:08:48;;;;;;;15.63;8.80;;;6.10;99.90;;;;;;4864457;29;20077;-67
2023/03/09 10:11:24;;;;;;;18.58;8.90;;;6.10;99.90;;;;;;4864282;29;20052;-69
2023/03/09 10:14:22;;;;;;;17.58;8.93;;;6.00;99.90;;;;;;4863816;29;20053;-67
2023/03/09 10:16:58;;;;;;;19.88;9.70;;;5.80;99.90;;;;;;4847810;29;20053;-67
2023/03/09 10:19:30;;;;;;;;;;;5.90;99.90;;;;;;4864297;29;20045;-68
2023/03/09 10:21:57;;;;;;;14.38;7.47;;;6.20;99.90;;;;;;4864337;29;19924;-68
2023/03/09 10:24:27;;;;;;;14.82;8.23;;;5.80;99.90;;;;;;4864299;29;20041;-67
2023/03/09 10:27:20;;;;;;;18.88;8.93;;;5.80;99.90;;;;;;4847665;29;20053;-67
2023/03/09 10:29:58;;;;;;;18.02;9.02;;;6.00;99.90;;;;;;4864263;29;20041;-67
2023/03/09 10:32:42;;;;;;;17.65;8.88;;;6.10;99.90;;;;;;4863924;29;20049;-67
2023/03/09 10:35:41;;;;;;;14.38;7.65;;;6.30;99.90;;;;;;4863988;29;20432;-67
2023/03/09 10:38:19;;;;;;;12.38;7.22;;;6.40;99.90;;;;;;4864908;29;20045;-67
2023/03/09 10:40:53;;;;;;;14.38;6.93;;;6.60;99.90;;;;;;4863915;29;20045;-68
2023/03/09 10:43:31;;;;;;;13.07;6.82;;;6.70;99.90;;;;;;4864169;29;20053;-68
2023/03/09 10:46:21;;;;;;;19.98;6.43;;;6.60;99.90;;;;;;4864182;29;20033;-68
2023/03/09 10:48:48;;;;;;;11.98;6.75;;;6.60;99.90;;;;;;4863894;29;20037;-67
2023/03/09 10:51:32;;;;;;;11.70;6.72;;;6.50;99.90;;;;;;4863823;29;20052;-68
2023/03/09 10:54:24;;;;;;;13.13;6.55;;;6.60;99.90;;;;;;4865744;29;20037;-68
2023/03/09 10:56:51;;;;;;;16.67;7.63;;;6.70;99.90;;;;;;4878526;29;20041;-75
2023/03/09 10:59:23;;;;;;;12.60;7.45;;;6.70;99.90;;;;;;4879582;29;20423;-68
2023/03/09 11:01:54;;;;;;;14.45;7.20;;;6.80;99.90;;;;;;4881205;29;20055;-68
2023/03/09 11:04:36;;;;;;;13.48;7.30;;;6.80;99.90;;;;;;4873507;29;20042;-68
2023/03/09 11:07:13;;;;;;;12.82;7.18;;;6.80;99.90;;;;;;4872535;29;20124;-68
2023/03/09 11:09:42;;;;;;;12.57;7.57;;;6.80;99.90;;;;;;4876855;29;20312;-68
2023/03/09 11:12:27;;;;;;;19.95;7.93;;;6.80;99.90;;;;;;4882431;29;20389;-67
2023/03/09 11:14:53;;;;;;;12.02;6.97;;;6.80;99.90;;;;;;4882432;29;20108;-68
2023/03/09 11:17:41;;;;;;;14.10;7.50;;;6.60;99.90;;;;;;4882475;29;20519;-68
2023/03/09 11:20:34;;;;;;;14.88;7.68;;;6.50;99.90;;;;;;4861271;29;20068;-67
2023/03/09 11:23:14;;;;;;;12.98;7.13;;;6.70;99.90;;;;;;4857872;29;20052;-67
2023/03/09 11:26:07;;;;;;;16.85;6.88;;;6.70;99.90;;;;;;4884859;29;20116;-67
2023/03/09 11:28:54;;;;;;;12.43;7.00;;;6.80;99.90;;;;;;4885438;29;20500;-67
2023/03/09 11:31:23;;;;;;;12.07;7.00;;;6.20;99.90;;;;;;4885418;29;20048;-67
2023/03/09 11:33:52;;;;;;;13.73;7.47;;;6.30;99.90;;;;;;4885369;29;20431;-67
2023/03/09 11:36:28;;;;;;;18.45;8.18;;;6.40;99.90;;;;;;4885592;29;20060;-69
2023/03/09 11:38:54;;;;;;;;;;;6.40;99.90;;;;;;4886121;29;20055;-68
2023/03/09 11:41:37;;;;;;;13.25;7.38;;;6.70;99.90;;;;;;4866914;29;20235;-67
2023/03/09 11:44:08;;;;;;;12.65;7.20;;;6.90;99.90;;;;;;4865851;29;20335;-67
2023/03/09 11:46:35;;;;;;;12.18;6.60;;;7.10;99.90;;;;;;4866739;29;20338;-67
2023/03/09 11:49:19;;;;;;;14.02;6.90;;;7.00;99.90;;;;;;4883316;29;20143;-67
2023/03/09 11:51:52;;;;;;;10.25;5.93;;;7.20;99.90;;;;;;4883134;29;20068;-68
2023/03/09 11:54:33;;;;;;;10.40;5.95;;;7.00;99.90;;;;;;4882048;29;20095;-67
2023/03/09 11:57:06;;;;;;;13.05;6.28;;;7.00;99.90;;;;;;4884020;29;20092;-68
2023/03/09 11:59:42;;;;;;;9.25;5.50;;;7.10;99.90;;;;;;4885046;29;20063;-67
2023/03/09 12:02:23;;;;;;;12.82;6.45;;;7.20;99.90;;;;;;4885138;29;20055;-67
2023/03/09 12:04:53;;;;;;;12.27;6.25;;;7.30;99.90;;;;;;4884868;29;20037;-66
2023/03/09 12:07:43;;;;;;;10.05;5.68;;;7.40;99.90;;;;;;4868291;29;20056;-66
2023/03/09 12:10:17;;;;;;;10.07;5.75;;;7.60;99.90;;;;;;4885033;29;20120;-67
2023/03/09 12:12:42;;;;;;;11.00;6.32;;;7.50;99.90;;;;;;4885013;29;20044;-67
2023/03/09 12:15:26;;;;;;;12.15;6.35;;;7.40;99.90;;;;;;4884950;29;20049;-66
2023/03/09 12:17:56;;;;;;;10.82;6.03;;;7.40;99.90;;;;;;4884596;29;20112;-66
2023/03/09 12:20:30;;;;;;;12.18;6.75;;;7.30;99.90;;;;;;4884012;29;20543;-67
2023/03/09 12:22:55;;;;;;;9.50;5.95;;;7.20;99.90;;;;;;4884467;29;20049;-67
2023/03/09 12:25:23;;;;;;;10.70;6.40;;;7.20;99.90;;;;;;4884732;29;20051;-67
2023/03/09 12:27:54;;;;;;;9.35;5.85;;;7.00;99.90;;;;;;4884708;29;20092;-67
2023/03/09 12:30:30;;;;;;;9.88;6.10;;;7.10;99.90;;;;;;4868217;29;20059;-66
2023/03/09 12:33:00;;;;;;;12.93;6.10;;;7.00;99.90;;;;;;4884732;29;20049;-67
2023/03/09 12:35:26;;;;;;;11.18;6.82;;;7.10;99.90;;;;;;4884150;29;20080;-67
2023/03/09 12:38:02;;;;;;;13.65;6.70;;;7.10;99.90;;;;;;4867651;29;20088;-67
2023/03/09 12:40:28;;;;;;;21.83;7.10;;;7.20;99.90;;;;;;4884579;29;20080;-67
2023/03/09 12:42:55;;;;;;;10.73;6.40;;;7.10;99.90;;;;;;4884063;29;20443;-67
2023/03/09 12:45:21;;;;;;;11.85;6.60;;;6.90;99.90;;;;;;4884412;29;20128;-67
2023/03/09 12:47:55;;;;;;;13.35;7.20;;;7.10;99.90;;;;;;4884353;29;20412;-67
2023/03/09 12:50:45;;;;;;;12.70;6.38;;;7.10;99.90;;;;;;4874477;29;20053;-68